To NAV CANADA Home Page Login to a new session Search on AWWS site Feedback and Comments Disclaimer Vers la page française équivalente Tips FAQ What's new on the site To the Forecasts and Observations / NOTAM section To "File a Flight Plan" website Publications and other links Update of the User's profile FIC Telephone Numbers My Weather Data Folder Route Weather Data Regional Weather Data Local Weather Data To the Forecasts and Observations / NOTAM section
Request Generated 05/25/2017 at 01:08:10 UTC . Weather information available at that time is displayed.

METAR/TAF

OTTAWA/MACDONALD-CARTIER INTL/ON    

METAR CYOW 250100Z 07006KT 15SM SCT080 BKN110 BKN260 19/11 A2976 RMK
AC3AC2CI2 SLP078 DENSITY ALT 1100FT=
METAR CYOW 250000Z 09007KT 15SM FEW060TCU BKN110 BKN260 21/11 A2975
RMK TCU1AC5CC2 TCU TR SLP075 DENSITY ALT 1300FT=
METAR CYOW 242300Z 10007KT 15SM FEW050TCU SCT110 BKN250 22/12 A2974
RMK TCU1AC4CI2 TCU TR TCU N SLP071 DENSITY ALT 1400FT=

TAF CYOW 242341Z 2500/2524 09007KT P6SM SCT060 BKN220
FM250200 08010KT P6SM BKN060 OVC140 TEMPO 2502/2509 P6SM -SHRA
OVC060
FM251400 09012G22KT P6SM BKN120 OVC200
BECMG 2516/2517 10018G28KT
FM251900 09015G25KT P6SM SCT040 OVC080 TEMPO 2519/2522 P6SM -SHRA
BKN040 OVC080
FM252200 08012G22KT P6SM -RA OVC050
RMK NXT FCST BY 250300Z=
Your time UTC time
Weather data provided by Environment Canada and NAV CANADA